sensor_id;sensor_type;location;lat;lon;timestamp;temperature;humidity
66722;SHT31;53633;49.932;10.884;2024-01-15T00:01:34;-1.39;82.57
66722;SHT31;53633;49.932;10.884;2024-01-15T00:04:02;-1.31;82.51
66722;SHT31;53633;49.932;10.884;2024-01-15T00:06:29;-1.24;82.46
66722;SHT31;53633;49.932;10.884;2024-01-15T00:08:56;-1.36;82.37
66722;SHT31;53633;49.932;10.884;2024-01-15T00:11:23;-1.40;82.50
66722;SHT31;53633;49.932;10.884;2024-01-15T00:13:49;-1.47;82.68
66722;SHT31;53633;49.932;10.884;2024-01-15T00:16:16;-1.41;82.64
66722;SHT31;53633;49.932;10.884;2024-01-15T00:18:43;-1.47;82.93
66722;SHT31;53633;49.932;10.884;2024-01-15T00:21:11;-1.43;82.82
66722;SHT31;53633;49.932;10.884;2024-01-15T00:23:42;-1.39;82.79
66722;SHT31;53633;49.932;10.884;2024-01-15T00:26:08;-1.34;82.82
66722;SHT31;53633;49.932;10.884;2024-01-15T00:28:36;-1.52;83.13
66722;SHT31;53633;49.932;10.884;2024-01-15T00:31:04;-1.33;82.91
66722;SHT31;53633;49.932;10.884;2024-01-15T00:33:31;-1.41;82.75
66722;SHT31;53633;49.932;10.884;2024-01-15T00:35:58;-1.29;82.83
66722;SHT31;53633;49.932;10.884;2024-01-15T00:38:26;-1.30;82.51
66722;SHT31;53633;49.932;10.884;2024-01-15T00:40:52;-1.24;82.45
66722;SHT31;53633;49.932;10.884;2024-01-15T00:43:19;-1.23;82.37
66722;SHT31;53633;49.932;10.884;2024-01-15T00:45:46;-1.46;82.64
66722;SHT31;53633;49.932;10.884;2024-01-15T00:48:14;-1.41;82.81
66722;SHT31;53633;49.932;10.884;2024-01-15T00:50:41;-1.36;82.60
66722;SHT31;53633;49.932;10.884;2024-01-15T00:53:08;-1.34;82.92
66722;SHT31;53633;49.932;10.884;2024-01-15T00:55:36;-1.30;82.81
66722;SHT31;53633;49.932;10.884;2024-01-15T00:58:02;-1.24;82.59
66722;SHT31;53633;49.932;10.884;2024-01-15T01:00:29;-1.20;82.38
66722;SHT31;53633;49.932;10.884;2024-01-15T01:02:56;-1.21;82.29
66722;SHT31;53633;49.932;10.884;2024-01-15T01:05:23;-1.20;82.20
66722;SHT31;53633;49.932;10.884;2024-01-15T01:07:49;-1.27;82.15
66722;SHT31;53633;49.932;10.884;2024-01-15T01:10:16;-1.31;82.34
66722;SHT31;53633;49.932;10.884;2024-01-15T01:12:44;-1.44;82.71
66722;SHT31;53633;49.932;10.884;2024-01-15T01:15:11;-1.39;83.04
66722;SHT31;53633;49.932;10.884;2024-01-15T01:17:38;-1.31;83.37
66722;SHT31;53633;49.932;10.884;2024-01-15T01:20:06;-1.34;83.67
66722;SHT31;53633;49.932;10.884;2024-01-15T01:22:33;-1.27;83.72
66722;SHT31;53633;49.932;10.884;2024-01-15T01:25:00;-1.29;83.43
66722;SHT31;53633;49.932;10.884;2024-01-15T01:27:27;-1.26;83.17
66722;SHT31;53633;49.932;10.884;2024-01-15T01:29:55;-1.20;83.09
66722;SHT31;53633;49.932;10.884;2024-01-15T01:32:22;-1.19;83.29
66722;SHT31;53633;49.932;10.884;2024-01-15T01:34:49;-1.16;83.06
66722;SHT31;53633;49.932;10.884;2024-01-15T01:37:15;-1.13;82.88
66722;SHT31;53633;49.932;10.884;2024-01-15T01:39:43;-1.34;82.38
66722;SHT31;53633;49.932;10.884;2024-01-15T01:42:11;-1.50;82.46
66722;SHT31;53633;49.932;10.884;2024-01-15T01:44:38;-1.40;82.70
66722;SHT31;53633;49.932;10.884;2024-01-15T01:47:06;-1.46;82.45
66722;SHT31;53633;49.932;10.884;2024-01-15T01:49:34;-1.46;82.75
66722;SHT31;53633;49.932;10.884;2024-01-15T01:52:02;-1.43;82.82
66722;SHT31;53633;49.932;10.884;2024-01-15T01:54:32;-1.40;82.73
66722;SHT31;53633;49.932;10.884;2024-01-15T01:56:59;-1.33;82.64
66722;SHT31;53633;49.932;10.884;2024-01-15T01:59:26;-1.33;82.59
66722;SHT31;53633;49.932;10.884;2024-01-15T02:01:54;-1.27;82.62
66722;SHT31;53633;49.932;10.884;2024-01-15T02:04:23;-1.36;82.17
66722;SHT31;53633;49.932;10.884;2024-01-15T02:06:50;-1.23;82.39
66722;SHT31;53633;49.932;10.884;2024-01-15T02:09:18;-1.33;82.37
66722;SHT31;53633;49.932;10.884;2024-01-15T02:11:46;-1.24;82.33
66722;SHT31;53633;49.932;10.884;2024-01-15T02:14:13;-1.27;82.22
66722;SHT31;53633;49.932;10.884;2024-01-15T02:16:40;-1.23;82.19
66722;SHT31;53633;49.932;10.884;2024-01-15T02:19:07;-1.20;82.12
66722;SHT31;53633;49.932;10.884;2024-01-15T02:21:35;-1.31;82.31
66722;SHT31;53633;49.932;10.884;2024-01-15T02:24:03;-1.36;82.70
66722;SHT31;53633;49.932;10.884;2024-01-15T02:26:30;-1.37;83.00
66722;SHT31;53633;49.932;10.884;2024-01-15T02:28:57;-1.44;82.77
66722;SHT31;53633;49.932;10.884;2024-01-15T02:31:23;-1.43;82.96
66722;SHT31;53633;49.932;10.884;2024-01-15T02:33:50;-1.43;83.15
66722;SHT31;53633;49.932;10.884;2024-01-15T02:36:17;-1.43;82.90
66722;SHT31;53633;49.932;10.884;2024-01-15T02:38:44;-1.43;82.74
66722;SHT31;53633;49.932;10.884;2024-01-15T02:41:12;-1.37;82.90
66722;SHT31;53633;49.932;10.884;2024-01-15T02:43:39;-1.55;83.15
66722;SHT31;53633;49.932;10.884;2024-01-15T02:46:06;-1.58;83.30
66722;SHT31;53633;49.932;10.884;2024-01-15T02:48:32;-1.60;83.52
66722;SHT31;53633;49.932;10.884;2024-01-15T02:50:59;-1.67;83.79
66722;SHT31;53633;49.932;10.884;2024-01-15T02:53:26;-1.58;83.71
66722;SHT31;53633;49.932;10.884;2024-01-15T02:55:53;-1.64;83.72
66722;SHT31;53633;49.932;10.884;2024-01-15T02:58:21;-1.58;83.71
66722;SHT31;53633;49.932;10.884;2024-01-15T03:00:48;-1.65;83.81
66722;SHT31;53633;49.932;10.884;2024-01-15T03:03:14;-1.65;83.57
66722;SHT31;53633;49.932;10.884;2024-01-15T03:05:41;-1.61;83.50
66722;SHT31;53633;49.932;10.884;2024-01-15T03:08:08;-1.61;83.53
66722;SHT31;53633;49.932;10.884;2024-01-15T03:10:35;-1.57;83.36
66722;SHT31;53633;49.932;10.884;2024-01-15T03:13:02;-1.52;83.32
66722;SHT31;53633;49.932;10.884;2024-01-15T03:15:30;-1.50;83.05
66722;SHT31;53633;49.932;10.884;2024-01-15T03:17:56;-1.57;82.93
66722;SHT31;53633;49.932;10.884;2024-01-15T03:20:23;-1.65;83.25
66722;SHT31;53633;49.932;10.884;2024-01-15T03:22:50;-1.55;83.22
66722;SHT31;53633;49.932;10.884;2024-01-15T03:25:17;-1.58;83.40
66722;SHT31;53633;49.932;10.884;2024-01-15T03:27:43;-1.62;83.52
66722;SHT31;53633;49.932;10.884;2024-01-15T03:30:11;-1.65;83.61
66722;SHT31;53633;49.932;10.884;2024-01-15T03:32:40;-1.61;83.83
66722;SHT31;53633;49.932;10.884;2024-01-15T03:35:07;-1.51;83.55
66722;SHT31;53633;49.932;10.884;2024-01-15T03:37:34;-1.48;83.55
66722;SHT31;53633;49.932;10.884;2024-01-15T03:40:00;-1.62;83.71
66722;SHT31;53633;49.932;10.884;2024-01-15T03:42:28;-1.68;83.80
66722;SHT31;53633;49.932;10.884;2024-01-15T03:44:54;-1.65;84.01
66722;SHT31;53633;49.932;10.884;2024-01-15T03:47:21;-1.69;84.27
66722;SHT31;53633;49.932;10.884;2024-01-15T03:49:49;-1.74;84.26
66722;SHT31;53633;49.932;10.884;2024-01-15T03:52:16;-1.65;84.07
66722;SHT31;53633;49.932;10.884;2024-01-15T03:54:42;-1.68;84.19
66722;SHT31;53633;49.932;10.884;2024-01-15T03:57:09;-1.62;84.26
66722;SHT31;53633;49.932;10.884;2024-01-15T03:59:36;-1.64;84.10
66722;SHT31;53633;49.932;10.884;2024-01-15T04:02:04;-1.61;84.20
66722;SHT31;53633;49.932;10.884;2024-01-15T04:04:30;-1.57;84.14
66722;SHT31;53633;49.932;10.884;2024-01-15T04:06:59;-1.54;84.24
66722;SHT31;53633;49.932;10.884;2024-01-15T04:09:25;-1.51;83.91
66722;SHT31;53633;49.932;10.884;2024-01-15T04:11:52;-1.47;84.00
66722;SHT31;53633;49.932;10.884;2024-01-15T04:14:19;-1.39;83.99
66722;SHT31;53633;49.932;10.884;2024-01-15T04:16:46;-1.43;83.83
66722;SHT31;53633;49.932;10.884;2024-01-15T04:19:12;-1.50;83.87
66722;SHT31;53633;49.932;10.884;2024-01-15T04:21:39;-1.46;84.15
66722;SHT31;53633;49.932;10.884;2024-01-15T04:24:07;-1.48;84.15
66722;SHT31;53633;49.932;10.884;2024-01-15T04:26:34;-1.48;84.34
66722;SHT31;53633;49.932;10.884;2024-01-15T04:29:01;-1.47;84.42
66722;SHT31;53633;49.932;10.884;2024-01-15T04:31:27;-1.54;84.58
66722;SHT31;53633;49.932;10.884;2024-01-15T04:33:54;-1.46;84.57
66722;SHT31;53633;49.932;10.884;2024-01-15T04:36:21;-1.43;84.35
66722;SHT31;53633;49.932;10.884;2024-01-15T04:38:48;-1.36;84.42
66722;SHT31;53633;49.932;10.884;2024-01-15T04:41:17;-1.37;84.62
66722;SHT31;53633;49.932;10.884;2024-01-15T04:43:43;-1.34;84.95
66722;SHT31;53633;49.932;10.884;2024-01-15T04:46:10;-1.43;85.88
66722;SHT31;53633;49.932;10.884;2024-01-15T04:48:37;-1.43;86.28
66722;SHT31;53633;49.932;10.884;2024-01-15T04:51:05;-1.43;86.27
66722;SHT31;53633;49.932;10.884;2024-01-15T04:53:33;-1.51;86.62
66722;SHT31;53633;49.932;10.884;2024-01-15T04:56:00;-1.47;86.64
66722;SHT31;53633;49.932;10.884;2024-01-15T04:58:28;-1.39;86.58
66722;SHT31;53633;49.932;10.884;2024-01-15T05:00:55;-1.34;86.53
66722;SHT31;53633;49.932;10.884;2024-01-15T05:03:22;-1.41;86.82
66722;SHT31;53633;49.932;10.884;2024-01-15T05:05:49;-1.40;86.98
66722;SHT31;53633;49.932;10.884;2024-01-15T05:08:16;-1.48;87.04
66722;SHT31;53633;49.932;10.884;2024-01-15T05:10:43;-1.50;87.10
66722;SHT31;53633;49.932;10.884;2024-01-15T05:13:09;-1.61;87.09
66722;SHT31;53633;49.932;10.884;2024-01-15T05:15:37;-1.55;87.26
66722;SHT31;53633;49.932;10.884;2024-01-15T05:18:05;-1.48;87.09
66722;SHT31;53633;49.932;10.884;2024-01-15T05:20:32;-1.41;86.95
66722;SHT31;53633;49.932;10.884;2024-01-15T05:22:59;-1.39;86.70
66722;SHT31;53633;49.932;10.884;2024-01-15T05:25:25;-1.41;86.57
66722;SHT31;53633;49.932;10.884;2024-01-15T05:27:52;-1.39;86.38
66722;SHT31;53633;49.932;10.884;2024-01-15T05:30:19;-1.36;86.33
66722;SHT31;53633;49.932;10.884;2024-01-15T05:32:47;-1.41;86.18
66722;SHT31;53633;49.932;10.884;2024-01-15T05:35:14;-1.37;86.61
66722;SHT31;53633;49.932;10.884;2024-01-15T05:37:44;-1.37;86.74
66722;SHT31;53633;49.932;10.884;2024-01-15T05:40:11;-1.41;86.93
66722;SHT31;53633;49.932;10.884;2024-01-15T05:42:38;-1.37;86.97
66722;SHT31;53633;49.932;10.884;2024-01-15T05:45:05;-1.40;86.86
66722;SHT31;53633;49.932;10.884;2024-01-15T05:47:33;-1.37;86.73
66722;SHT31;53633;49.932;10.884;2024-01-15T05:50:01;-1.31;86.58
66722;SHT31;53633;49.932;10.884;2024-01-15T05:52:28;-1.37;86.80
66722;SHT31;53633;49.932;10.884;2024-01-15T05:54:55;-1.44;86.73
66722;SHT31;53633;49.932;10.884;2024-01-15T05:57:22;-1.33;86.68
66722;SHT31;53633;49.932;10.884;2024-01-15T05:59:49;-1.24;86.39
66722;SHT31;53633;49.932;10.884;2024-01-15T06:02:16;-1.16;85.98
66722;SHT31;53633;49.932;10.884;2024-01-15T06:04:42;-1.17;85.85
66722;SHT31;53633;49.932;10.884;2024-01-15T06:07:11;-1.07;85.73
66722;SHT31;53633;49.932;10.884;2024-01-15T06:09:37;-1.13;85.53
66722;SHT31;53633;49.932;10.884;2024-01-15T06:12:05;-1.19;85.64
66722;SHT31;53633;49.932;10.884;2024-01-15T06:14:32;-1.12;85.60
66722;SHT31;53633;49.932;10.884;2024-01-15T06:16:59;-1.13;85.61
66722;SHT31;53633;49.932;10.884;2024-01-15T06:19:25;-1.14;85.74
66722;SHT31;53633;49.932;10.884;2024-01-15T06:21:52;-1.12;86.00
66722;SHT31;53633;49.932;10.884;2024-01-15T06:24:21;-1.20;87.06
66722;SHT31;53633;49.932;10.884;2024-01-15T06:26:47;-1.20;87.26
66722;SHT31;53633;49.932;10.884;2024-01-15T06:29:14;-1.27;87.26
66722;SHT31;53633;49.932;10.884;2024-01-15T06:31:41;-1.23;87.01
66722;SHT31;53633;49.932;10.884;2024-01-15T06:34:08;-1.24;86.79
66722;SHT31;53633;49.932;10.884;2024-01-15T06:36:34;-1.21;86.52
66722;SHT31;53633;49.932;10.884;2024-01-15T06:39:01;-1.30;86.59
66722;SHT31;53633;49.932;10.884;2024-01-15T06:41:29;-1.27;86.66
66722;SHT31;53633;49.932;10.884;2024-01-15T06:43:56;-1.24;86.45
66722;SHT31;53633;49.932;10.884;2024-01-15T06:46:23;-1.19;86.48
66722;SHT31;53633;49.932;10.884;2024-01-15T06:48:50;-1.10;86.29
66722;SHT31;53633;49.932;10.884;2024-01-15T06:51:17;-1.04;86.23
66722;SHT31;53633;49.932;10.884;2024-01-15T06:53:43;-1.13;86.11
66722;SHT31;53633;49.932;10.884;2024-01-15T06:56:10;-1.04;86.25
66722;SHT31;53633;49.932;10.884;2024-01-15T06:58:38;-1.00;86.10
66722;SHT31;53633;49.932;10.884;2024-01-15T07:01:05;-0.99;85.95
66722;SHT31;53633;49.932;10.884;2024-01-15T07:03:32;-1.02;85.82
66722;SHT31;53633;49.932;10.884;2024-01-15T07:05:59;-1.02;85.76
66722;SHT31;53633;49.932;10.884;2024-01-15T07:08:25;-1.10;85.98
66722;SHT31;53633;49.932;10.884;2024-01-15T07:10:52;-1.12;85.93
66722;SHT31;53633;49.932;10.884;2024-01-15T07:13:19;-1.09;86.17
66722;SHT31;53633;49.932;10.884;2024-01-15T07:15:47;-1.02;85.89
66722;SHT31;53633;49.932;10.884;2024-01-15T07:18:13;-1.13;85.87
66722;SHT31;53633;49.932;10.884;2024-01-15T07:20:40;-1.09;85.88
66722;SHT31;53633;49.932;10.884;2024-01-15T07:23:07;-1.10;85.63
66722;SHT31;53633;49.932;10.884;2024-01-15T07:25:34;-1.03;85.65
66722;SHT31;53633;49.932;10.884;2024-01-15T07:28:01;-1.07;85.95
66722;SHT31;53633;49.932;10.884;2024-01-15T07:30:27;-1.06;86.21
66722;SHT31;53633;49.932;10.884;2024-01-15T07:32:56;-1.06;86.19
66722;SHT31;53633;49.932;10.884;2024-01-15T07:35:23;-1.06;86.50
66722;SHT31;53633;49.932;10.884;2024-01-15T07:37:50;-1.04;86.46
66722;SHT31;53633;49.932;10.884;2024-01-15T07:40:16;-1.12;86.76
66722;SHT31;53633;49.932;10.884;2024-01-15T07:42:43;-1.04;86.66
66722;SHT31;53633;49.932;10.884;2024-01-15T07:45:10;-0.95;86.57
66722;SHT31;53633;49.932;10.884;2024-01-15T07:47:37;-0.95;86.63
66722;SHT31;53633;49.932;10.884;2024-01-15T07:50:06;-0.88;86.46
66722;SHT31;53633;49.932;10.884;2024-01-15T07:52:33;-0.86;86.40
66722;SHT31;53633;49.932;10.884;2024-01-15T07:55:00;-0.86;86.07
66722;SHT31;53633;49.932;10.884;2024-01-15T07:57:27;-0.92;86.30
66722;SHT31;53633;49.932;10.884;2024-01-15T07:59:54;-0.79;86.02
66722;SHT31;53633;49.932;10.884;2024-01-15T08:02:21;-0.81;85.80
66722;SHT31;53633;49.932;10.884;2024-01-15T08:04:47;-0.91;85.69
66722;SHT31;53633;49.932;10.884;2024-01-15T08:07:15;-0.86;85.91
66722;SHT31;53633;49.932;10.884;2024-01-15T08:09:42;-0.79;85.89
66722;SHT31;53633;49.932;10.884;2024-01-15T08:12:09;-0.75;85.67
66722;SHT31;53633;49.932;10.884;2024-01-15T08:14:36;-0.85;85.75
66722;SHT31;53633;49.932;10.884;2024-01-15T08:17:03;-0.72;85.60
66722;SHT31;53633;49.932;10.884;2024-01-15T08:19:30;-0.69;85.56
66722;SHT31;53633;49.932;10.884;2024-01-15T08:21:57;-0.61;85.36
66722;SHT31;53633;49.932;10.884;2024-01-15T08:24:25;-0.51;84.89
66722;SHT31;53633;49.932;10.884;2024-01-15T08:26:51;-0.45;84.79
66722;SHT31;53633;49.932;10.884;2024-01-15T08:29:18;-0.45;84.65
66722;SHT31;53633;49.932;10.884;2024-01-15T08:31:45;-0.41;84.90
66722;SHT31;53633;49.932;10.884;2024-01-15T08:34:12;-0.38;84.62
66722;SHT31;53633;49.932;10.884;2024-01-15T08:36:39;-0.41;84.77
66722;SHT31;53633;49.932;10.884;2024-01-15T08:39:06;-0.54;84.66
66722;SHT31;53633;49.932;10.884;2024-01-15T08:41:34;-0.55;84.87
66722;SHT31;53633;49.932;10.884;2024-01-15T08:44:01;-0.60;84.71
66722;SHT31;53633;49.932;10.884;2024-01-15T08:46:28;-0.53;84.69
66722;SHT31;53633;49.932;10.884;2024-01-15T08:48:55;-0.58;84.89
66722;SHT31;53633;49.932;10.884;2024-01-15T08:51:22;-0.54;84.73
66722;SHT31;53633;49.932;10.884;2024-01-15T08:53:48;-0.48;84.62
66722;SHT31;53633;49.932;10.884;2024-01-15T08:56:15;-0.42;84.64
66722;SHT31;53633;49.932;10.884;2024-01-15T08:58:43;-0.41;84.87
66722;SHT31;53633;49.932;10.884;2024-01-15T09:01:10;-0.38;84.95
66722;SHT31;53633;49.932;10.884;2024-01-15T09:03:37;-0.33;84.64
66722;SHT31;53633;49.932;10.884;2024-01-15T09:06:04;-0.19;84.24
66722;SHT31;53633;49.932;10.884;2024-01-15T09:08:31;-0.21;84.01
66722;SHT31;53633;49.932;10.884;2024-01-15T09:10:57;-0.16;83.86
66722;SHT31;53633;49.932;10.884;2024-01-15T09:13:24;-0.05;83.55
66722;SHT31;53633;49.932;10.884;2024-01-15T09:15:52;0.08;83.51
66722;SHT31;53633;49.932;10.884;2024-01-15T09:18:19;0.07;83.27
66722;SHT31;53633;49.932;10.884;2024-01-15T09:20:46;0.00;83.07
66722;SHT31;53633;49.932;10.884;2024-01-15T09:23:13;-0.02;83.16
66722;SHT31;53633;49.932;10.884;2024-01-15T09:25:40;0.00;83.08
66722;SHT31;53633;49.932;10.884;2024-01-15T09:28:06;-0.02;83.00
66722;SHT31;53633;49.932;10.884;2024-01-15T09:30:33;-0.10;83.36
66722;SHT31;53633;49.932;10.884;2024-01-15T09:33:01;-0.20;83.86
66722;SHT31;53633;49.932;10.884;2024-01-15T09:35:28;-0.14;83.77
66722;SHT31;53633;49.932;10.884;2024-01-15T09:37:55;-0.14;83.81
66722;SHT31;53633;49.932;10.884;2024-01-15T09:40:22;-0.06;83.73
66722;SHT31;53633;49.932;10.884;2024-01-15T09:42:50;-0.05;83.56
66722;SHT31;53633;49.932;10.884;2024-01-15T09:45:18;-0.21;83.77
66722;SHT31;53633;49.932;10.884;2024-01-15T09:47:45;-0.10;83.72
66722;SHT31;53633;49.932;10.884;2024-01-15T09:50:14;-0.05;83.75
66722;SHT31;53633;49.932;10.884;2024-01-15T09:52:42;0.00;83.59
66722;SHT31;53633;49.932;10.884;2024-01-15T09:55:09;0.00;83.58
66722;SHT31;53633;49.932;10.884;2024-01-15T09:57:37;-0.06;83.79
66722;SHT31;53633;49.932;10.884;2024-01-15T10:00:05;0.01;83.79
66722;SHT31;53633;49.932;10.884;2024-01-15T10:02:34;0.17;83.41
66722;SHT31;53633;49.932;10.884;2024-01-15T10:05:02;0.11;83.50
66722;SHT31;53633;49.932;10.884;2024-01-15T10:07:30;0.17;83.31
66722;SHT31;53633;49.932;10.884;2024-01-15T10:09:59;0.15;83.32
66722;SHT31;53633;49.932;10.884;2024-01-15T10:12:26;0.15;83.09
66722;SHT31;53633;49.932;10.884;2024-01-15T10:14:53;0.08;83.35
66722;SHT31;53633;49.932;10.884;2024-01-15T10:17:20;0.12;83.48
66722;SHT31;53633;49.932;10.884;2024-01-15T10:19:47;0.19;83.52
66722;SHT31;53633;49.932;10.884;2024-01-15T10:22:16;0.25;83.33
66722;SHT31;53633;49.932;10.884;2024-01-15T10:24:44;0.26;83.37
66722;SHT31;53633;49.932;10.884;2024-01-15T10:27:12;0.21;83.31
66722;SHT31;53633;49.932;10.884;2024-01-15T10:29:40;0.17;83.49
66722;SHT31;53633;49.932;10.884;2024-01-15T10:32:08;0.25;83.48
66722;SHT31;53633;49.932;10.884;2024-01-15T10:34:37;0.21;83.28
66722;SHT31;53633;49.932;10.884;2024-01-15T10:37:04;0.22;83.37
66722;SHT31;53633;49.932;10.884;2024-01-15T10:39:35;0.29;83.26
66722;SHT31;53633;49.932;10.884;2024-01-15T10:42:04;0.18;83.23
66722;SHT31;53633;49.932;10.884;2024-01-15T10:44:31;0.22;83.38
66722;SHT31;53633;49.932;10.884;2024-01-15T10:46:58;0.18;83.35
66722;SHT31;53633;49.932;10.884;2024-01-15T10:49:24;0.18;83.48
66722;SHT31;53633;49.932;10.884;2024-01-15T10:51:57;0.19;83.48
66722;SHT31;53633;49.932;10.884;2024-01-15T10:54:24;0.22;83.50
66722;SHT31;53633;49.932;10.884;2024-01-15T10:56:51;0.22;83.56
66722;SHT31;53633;49.932;10.884;2024-01-15T10:59:20;0.26;83.46
66722;SHT31;53633;49.932;10.884;2024-01-15T11:01:47;0.33;83.26
66722;SHT31;53633;49.932;10.884;2024-01-15T11:04:15;0.46;83.04
66722;SHT31;53633;49.932;10.884;2024-01-15T11:06:43;0.39;83.32
66722;SHT31;53633;49.932;10.884;2024-01-15T11:09:12;0.48;83.20
66722;SHT31;53633;49.932;10.884;2024-01-15T11:11:42;0.45;83.10
66722;SHT31;53633;49.932;10.884;2024-01-15T11:14:10;0.49;83.11
66722;SHT31;53633;49.932;10.884;2024-01-15T11:16:56;0.55;83.06
66722;SHT31;53633;49.932;10.884;2024-01-15T11:19:23;0.46;83.04
66722;SHT31;53633;49.932;10.884;2024-01-15T11:21:50;0.52;83.07
66722;SHT31;53633;49.932;10.884;2024-01-15T11:24:37;0.59;82.86
66722;SHT31;53633;49.932;10.884;2024-01-15T11:27:05;0.58;82.96
66722;SHT31;53633;49.932;10.884;2024-01-15T11:29:33;0.55;82.96
66722;SHT31;53633;49.932;10.884;2024-01-15T11:32:03;0.62;82.85
66722;SHT31;53633;49.932;10.884;2024-01-15T11:34:52;0.67;82.81
66722;SHT31;53633;49.932;10.884;2024-01-15T11:37:20;0.67;82.83
66722;SHT31;53633;49.932;10.884;2024-01-15T11:39:47;0.79;82.82
66722;SHT31;53633;49.932;10.884;2024-01-15T11:42:14;0.91;82.71
66722;SHT31;53633;49.932;10.884;2024-01-15T11:44:41;0.88;82.49
66722;SHT31;53633;49.932;10.884;2024-01-15T11:47:11;0.91;82.29
66722;SHT31;53633;49.932;10.884;2024-01-15T11:50:00;0.94;82.30
66722;SHT31;53633;49.932;10.884;2024-01-15T11:52:32;0.84;82.42
66722;SHT31;53633;49.932;10.884;2024-01-15T11:55:01;0.88;82.46
66722;SHT31;53633;49.932;10.884;2024-01-15T11:57:37;0.87;82.42
66722;SHT31;53633;49.932;10.884;2024-01-15T12:00:10;0.96;82.29
66722;SHT31;53633;49.932;10.884;2024-01-15T12:02:39;0.90;82.31
66722;SHT31;53633;49.932;10.884;2024-01-15T12:05:07;0.93;82.45
66722;SHT31;53633;49.932;10.884;2024-01-15T12:07:33;0.87;82.47
66722;SHT31;53633;49.932;10.884;2024-01-15T12:10:00;0.91;82.62
66722;SHT31;53633;49.932;10.884;2024-01-15T12:12:37;0.98;82.50
66722;SHT31;53633;49.932;10.884;2024-01-15T12:15:06;1.05;82.41
66722;SHT31;53633;49.932;10.884;2024-01-15T12:17:34;1.11;82.34
66722;SHT31;53633;49.932;10.884;2024-01-15T12:20:03;1.17;82.10
66722;SHT31;53633;49.932;10.884;2024-01-15T12:22:30;1.13;82.13
66722;SHT31;53633;49.932;10.884;2024-01-15T12:25:10;1.15;82.14
66722;SHT31;53633;49.932;10.884;2024-01-15T12:27:37;1.15;82.16
66722;SHT31;53633;49.932;10.884;2024-01-15T12:30:05;1.17;82.28
66722;SHT31;53633;49.932;10.884;2024-01-15T12:32:32;1.25;81.94
66722;SHT31;53633;49.932;10.884;2024-01-15T12:35:00;1.24;82.07
66722;SHT31;53633;49.932;10.884;2024-01-15T12:37:31;1.18;82.13
66722;SHT31;53633;49.932;10.884;2024-01-15T12:39:59;1.17;82.32
66722;SHT31;53633;49.932;10.884;2024-01-15T12:42:25;1.05;82.50
66722;SHT31;53633;49.932;10.884;2024-01-15T12:44:56;1.09;82.38
66722;SHT31;53633;49.932;10.884;2024-01-15T12:47:23;1.13;82.32
66722;SHT31;53633;49.932;10.884;2024-01-15T12:49:51;0.91;82.48
66722;SHT31;53633;49.932;10.884;2024-01-15T12:52:19;0.91;82.63
66722;SHT31;53633;49.932;10.884;2024-01-15T12:54:48;0.96;82.55
66722;SHT31;53633;49.932;10.884;2024-01-15T12:57:15;1.04;82.34
66722;SHT31;53633;49.932;10.884;2024-01-15T12:59:43;0.98;82.21
66722;SHT31;53633;49.932;10.884;2024-01-15T13:02:10;1.09;82.27
66722;SHT31;53633;49.932;10.884;2024-01-15T13:04:37;0.98;82.10
66722;SHT31;53633;49.932;10.884;2024-01-15T13:07:04;1.04;82.00
66722;SHT31;53633;49.932;10.884;2024-01-15T13:09:31;1.09;81.92
66722;SHT31;53633;49.932;10.884;2024-01-15T13:11:59;1.09;81.79
66722;SHT31;53633;49.932;10.884;2024-01-15T13:14:27;1.11;81.82
66722;SHT31;53633;49.932;10.884;2024-01-15T13:16:54;1.17;81.88
66722;SHT31;53633;49.932;10.884;2024-01-15T13:19:21;1.15;81.80
66722;SHT31;53633;49.932;10.884;2024-01-15T13:21:48;1.08;81.75
66722;SHT31;53633;49.932;10.884;2024-01-15T13:24:15;1.08;81.95
66722;SHT31;53633;49.932;10.884;2024-01-15T13:26:42;1.09;81.82
66722;SHT31;53633;49.932;10.884;2024-01-15T13:29:24;0.97;81.83
66722;SHT31;53633;49.932;10.884;2024-01-15T13:31:51;1.00;82.15
66722;SHT31;53633;49.932;10.884;2024-01-15T13:34:18;1.05;81.95
66722;SHT31;53633;49.932;10.884;2024-01-15T13:36:45;1.09;81.74
66722;SHT31;53633;49.932;10.884;2024-01-15T13:39:12;1.00;81.69
66722;SHT31;53633;49.932;10.884;2024-01-15T13:41:39;1.00;81.83
66722;SHT31;53633;49.932;10.884;2024-01-15T13:44:06;0.97;81.61
66722;SHT31;53633;49.932;10.884;2024-01-15T13:46:34;1.05;81.56
66722;SHT31;53633;49.932;10.884;2024-01-15T13:49:00;1.11;81.61
66722;SHT31;53633;49.932;10.884;2024-01-15T13:51:27;1.18;81.40
66722;SHT31;53633;49.932;10.884;2024-01-15T13:53:54;1.15;81.47
66722;SHT31;53633;49.932;10.884;2024-01-15T13:56:21;1.30;81.22
66722;SHT31;53633;49.932;10.884;2024-01-15T13:58:48;1.32;81.09
66722;SHT31;53633;49.932;10.884;2024-01-15T14:01:14;1.20;80.98
66722;SHT31;53633;49.932;10.884;2024-01-15T14:03:43;1.21;81.13
66722;SHT31;53633;49.932;10.884;2024-01-15T14:06:10;1.07;81.61
66722;SHT31;53633;49.932;10.884;2024-01-15T14:08:37;1.11;81.84
66722;SHT31;53633;49.932;10.884;2024-01-15T14:11:04;1.08;81.83
66722;SHT31;53633;49.932;10.884;2024-01-15T14:13:31;1.14;81.91
66722;SHT31;53633;49.932;10.884;2024-01-15T14:15:57;1.15;81.88
66722;SHT31;53633;49.932;10.884;2024-01-15T14:18:24;1.05;82.00
66722;SHT31;53633;49.932;10.884;2024-01-15T14:20:52;1.04;82.09
66722;SHT31;53633;49.932;10.884;2024-01-15T14:23:19;1.00;82.37
66722;SHT31;53633;49.932;10.884;2024-01-15T14:25:46;1.07;82.21
66722;SHT31;53633;49.932;10.884;2024-01-15T14:28:13;1.07;82.20
66722;SHT31;53633;49.932;10.884;2024-01-15T14:30:39;1.20;81.98
66722;SHT31;53633;49.932;10.884;2024-01-15T14:33:06;1.13;82.28
66722;SHT31;53633;49.932;10.884;2024-01-15T14:35:33;1.13;82.49
66722;SHT31;53633;49.932;10.884;2024-01-15T14:38:01;1.11;82.78
66722;SHT31;53633;49.932;10.884;2024-01-15T14:40:28;1.18;82.78
66722;SHT31;53633;49.932;10.884;2024-01-15T14:42:55;1.13;83.06
66722;SHT31;53633;49.932;10.884;2024-01-15T14:45:21;1.03;83.72
66722;SHT31;53633;49.932;10.884;2024-01-15T14:47:48;0.80;84.88
66722;SHT31;53633;49.932;10.884;2024-01-15T14:50:15;0.80;85.69
66722;SHT31;53633;49.932;10.884;2024-01-15T14:52:42;0.81;86.42
66722;SHT31;53633;49.932;10.884;2024-01-15T14:55:10;0.70;87.56
66722;SHT31;53633;49.932;10.884;2024-01-15T14:57:37;0.66;87.87
66722;SHT31;53633;49.932;10.884;2024-01-15T15:00:05;0.70;87.88
66722;SHT31;53633;49.932;10.884;2024-01-15T15:02:32;0.76;87.65
66722;SHT31;53633;49.932;10.884;2024-01-15T15:04:59;0.70;87.88
66722;SHT31;53633;49.932;10.884;2024-01-15T15:07:26;0.65;87.72
66722;SHT31;53633;49.932;10.884;2024-01-15T15:09:53;0.70;87.97
66722;SHT31;53633;49.932;10.884;2024-01-15T15:12:22;0.63;87.87
66722;SHT31;53633;49.932;10.884;2024-01-15T15:14:48;0.67;87.67
66722;SHT31;53633;49.932;10.884;2024-01-15T15:17:29;0.67;87.67
66722;SHT31;53633;49.932;10.884;2024-01-15T15:19:56;0.76;87.35
66722;SHT31;53633;49.932;10.884;2024-01-15T15:22:23;0.69;86.98
66722;SHT31;53633;49.932;10.884;2024-01-15T15:24:50;0.70;87.12